Time;durP1;ratioP1;P1;durP2;ratioP2;P2;SDS_P1;SDS_P2;PMS_P1;PMS_P2;Temp;Humidity;BMP_temperature;BMP_pressure;BME280_temperature;BME280_humidity;BME280_pressure;Samples;Min_cycle;Max_cycle;Signal;HPM_P1;HPM_P2
2024/03/13 00:02:14;;;;;;;0.30;0.20;;;11.60;99.90;;;;;;5065250;28;20430;-76
2024/03/13 00:04:45;;;;;;;0.30;0.20;;;11.70;99.90;;;;;;5065650;28;20434;-76
2024/03/13 00:07:11;;;;;;;0.30;0.20;;;11.70;99.90;;;;;;5065128;28;20203;-76
2024/03/13 00:09:45;;;;;;;0.30;0.20;;;11.70;99.90;;;;;;5063898;28;20183;-76
2024/03/13 00:12:13;;;;;;;0.30;0.30;;;11.70;99.90;;;;;;5064993;28;20949;-79
2024/03/13 00:14:40;;;;;;;0.30;0.20;;;11.70;99.90;;;;;;5065159;28;20468;-79
2024/03/13 00:17:06;;;;;;;0.30;0.20;;;11.70;99.90;;;;;;5065233;28;20678;-79
2024/03/13 00:19:33;;;;;;;0.30;0.30;;;11.70;99.90;;;;;;5065487;28;20193;-78
2024/03/13 00:22:00;;;;;;;0.30;0.20;;;11.70;99.90;;;;;;5064935;28;20177;-77
2024/03/13 00:24:27;;;;;;;0.30;0.20;;;11.70;99.90;;;;;;5064379;28;20437;-79
2024/03/13 00:26:56;;;;;;;0.60;0.60;;;11.70;99.90;;;;;;5064353;28;20437;-76
2024/03/13 00:29:22;;;;;;;0.30;0.20;;;11.70;99.90;;;;;;5063959;28;20485;-79
2024/03/13 00:31:48;;;;;;;0.30;0.20;;;11.70;99.90;;;;;;5065064;28;20409;-79
2024/03/13 00:34:14;;;;;;;0.30;0.20;;;11.70;99.90;;;;;;5063722;28;20524;-79
2024/03/13 00:36:39;;;;;;;1.23;1.13;;;11.70;99.90;;;;;;5065461;28;20181;-76
2024/03/13 00:39:05;;;;;;;0.30;0.20;;;11.70;99.90;;;;;;5065114;28;20200;-79
2024/03/13 00:41:31;;;;;;;0.30;0.30;;;11.70;99.90;;;;;;5068702;28;20185;-79
2024/03/13 00:43:56;;;;;;;0.50;0.50;;;11.70;99.90;;;;;;5068724;28;20784;-79
2024/03/13 00:46:25;;;;;;;0.30;0.20;;;11.70;99.90;;;;;;5067594;28;20224;-76
2024/03/13 00:48:50;;;;;;;0.30;0.30;;;11.70;99.90;;;;;;5068721;28;20287;-76
2024/03/13 00:51:16;;;;;;;1.07;1.07;;;11.70;99.90;;;;;;5067698;28;20571;-76
2024/03/13 00:53:42;;;;;;;0.30;0.20;;;11.70;99.90;;;;;;5068557;28;20227;-79
2024/03/13 00:56:11;;;;;;;0.30;0.20;;;11.70;99.90;;;;;;5069213;28;20208;-76
2024/03/13 00:58:37;;;;;;;0.30;0.20;;;11.70;99.90;;;;;;5068543;28;20722;-78
2024/03/13 01:01:03;;;;;;;0.30;0.20;;;11.70;99.90;;;;;;5068886;28;20208;-75
2024/03/13 01:03:28;;;;;;;0.40;0.40;;;11.70;99.90;;;;;;5068933;28;20205;-77
2024/03/13 01:05:56;;;;;;;0.30;0.20;;;11.70;99.90;;;;;;5067050;28;20259;-79
2024/03/13 01:08:24;;;;;;;0.52;0.52;;;11.70;99.90;;;;;;5067123;28;20197;-78
2024/03/13 01:10:52;;;;;;;0.40;0.40;;;11.70;99.90;;;;;;5068969;28;20177;-81
2024/03/13 01:13:19;;;;;;;0.30;0.30;;;11.70;99.90;;;;;;5066559;28;20434;-76
2024/03/13 01:15:45;;;;;;;1.23;1.13;;;11.70;99.90;;;;;;5067064;28;20525;-79
2024/03/13 01:18:11;;;;;;;0.30;0.20;;;11.70;99.90;;;;;;5067865;28;20433;-79
2024/03/13 01:20:37;;;;;;;0.30;0.30;;;11.70;99.90;;;;;;5068743;28;20589;-76
2024/03/13 01:23:02;;;;;;;0.50;0.50;;;11.70;99.90;;;;;;5068374;28;20250;-79
2024/03/13 01:25:28;;;;;;;0.30;0.20;;;11.70;99.90;;;;;;5067657;28;20243;-76
2024/03/13 01:27:54;;;;;;;0.30;0.20;;;11.70;99.90;;;;;;5066412;28;20666;-79
2024/03/13 01:30:21;;;;;;;0.30;0.20;;;11.70;99.90;;;;;;5068630;28;20833;-77
2024/03/13 01:32:47;;;;;;;0.30;0.30;;;11.60;99.90;;;;;;5067897;28;20193;-76
2024/03/13 01:35:13;;;;;;;0.30;0.20;;;11.60;99.90;;;;;;5068172;28;20234;-76
2024/03/13 01:40:28;;;;;;;1.88;1.77;;;11.60;99.90;;;;;;5068221;28;20459;-79
2024/03/13 01:57:12;;;;;;;0.30;0.20;;;11.60;99.90;;;;;;5067706;28;20588;-76
2024/03/13 01:59:49;;;;;;;0.30;0.20;;;11.50;99.90;;;;;;5067725;28;20638;-78
2024/03/13 02:02:24;;;;;;;1.70;1.60;;;11.50;99.90;;;;;;5067339;28;20413;-76
2024/03/13 02:04:51;;;;;;;0.30;0.20;;;11.50;99.90;;;;;;5066194;28;20227;-76
2024/03/13 02:07:18;;;;;;;0.30;0.20;;;11.60;99.90;;;;;;5066925;28;21020;-79
2024/03/13 02:09:47;;;;;;;0.30;0.20;;;11.50;99.90;;;;;;5067550;28;20181;-79
2024/03/13 02:12:13;;;;;;;0.30;0.20;;;11.50;99.90;;;;;;5066778;28;20172;-78
2024/03/13 02:14:38;;;;;;;0.30;0.20;;;11.50;99.90;;;;;;5066118;28;20236;-76
2024/03/13 02:17:06;;;;;;;12.63;11.70;;;11.50;99.90;;;;;;5066803;28;20177;-79
2024/03/13 02:19:38;;;;;;;0.30;0.20;;;11.50;99.90;;;;;;5067452;28;20563;-77
2024/03/13 02:22:05;;;;;;;0.30;0.20;;;11.50;99.90;;;;;;5065470;28;20166;-76
2024/03/13 02:24:35;;;;;;;1.85;1.75;;;11.50;99.90;;;;;;5067095;28;20192;-77
2024/03/13 02:27:07;;;;;;;0.30;0.20;;;11.50;99.90;;;;;;5066740;28;20690;-79
2024/03/13 02:29:33;;;;;;;7.20;6.88;;;11.60;99.90;;;;;;5065241;28;20219;-76
2024/03/13 02:32:00;;;;;;;0.50;0.50;;;11.50;99.90;;;;;;5067003;28;20184;-79
2024/03/13 02:34:26;;;;;;;0.30;0.20;;;11.50;99.90;;;;;;5066764;28;20217;-79
2024/03/13 02:36:54;;;;;;;0.30;0.20;;;11.50;99.90;;;;;;5067077;28;20639;-77
2024/03/13 02:39:20;;;;;;;0.60;0.60;;;11.60;99.90;;;;;;5065228;28;20658;-77
2024/03/13 02:41:46;;;;;;;1.07;1.07;;;11.60;99.90;;;;;;5065220;28;20191;-76
2024/03/13 02:44:12;;;;;;;1.03;1.03;;;11.60;99.90;;;;;;5066402;28;20201;-79
2024/03/13 02:46:37;;;;;;;0.40;0.30;;;11.60;99.90;;;;;;5066941;28;20531;-79
2024/03/13 02:49:03;;;;;;;2.63;2.53;;;11.60;99.90;;;;;;5066526;28;20643;-79
2024/03/13 02:51:30;;;;;;;0.30;0.20;;;11.60;99.90;;;;;;5066844;28;20406;-77
2024/03/13 02:53:56;;;;;;;0.40;0.40;;;11.60;99.90;;;;;;5066284;28;20213;-77
2024/03/13 02:56:21;;;;;;;0.30;0.20;;;11.60;99.90;;;;;;5066791;28;20217;-79
2024/03/13 02:58:48;;;;;;;0.30;0.20;;;11.60;99.90;;;;;;5066310;28;20228;-79
2024/03/13 03:01:14;;;;;;;0.38;0.25;;;11.60;99.90;;;;;;5066355;28;20406;-77
2024/03/13 03:03:40;;;;;;;0.30;0.20;;;11.50;99.90;;;;;;5065187;28;20666;-77
2024/03/13 03:06:06;;;;;;;0.30;0.30;;;11.50;99.90;;;;;;5064854;28;20224;-79
2024/03/13 03:08:33;;;;;;;0.30;0.20;;;11.50;99.90;;;;;;5064569;28;20207;-79
2024/03/13 03:11:03;;;;;;;1.20;1.00;;;11.50;99.90;;;;;;5064510;28;20188;-79
2024/03/13 03:13:29;;;;;;;0.30;0.20;;;11.50;99.90;;;;;;5064266;28;20542;-76
2024/03/13 03:15:55;;;;;;;0.73;0.73;;;11.50;99.90;;;;;;5063488;28;20237;-76
2024/03/13 03:18:20;;;;;;;0.83;0.83;;;11.50;99.90;;;;;;5062614;28;20537;-79
2024/03/13 03:20:46;;;;;;;0.30;0.20;;;11.50;99.90;;;;;;5066009;28;20189;-77
2024/03/13 03:23:13;;;;;;;0.30;0.20;;;11.50;99.90;;;;;;5065749;28;20185;-79
2024/03/13 03:25:39;;;;;;;0.30;0.30;;;11.50;99.90;;;;;;5065826;28;20228;-77
2024/03/13 03:28:05;;;;;;;0.30;0.30;;;11.50;99.90;;;;;;5066079;28;20340;-79
2024/03/13 03:30:30;;;;;;;0.30;0.30;;;11.50;99.90;;;;;;5064707;28;20474;-79
2024/03/13 03:32:58;;;;;;;0.30;0.20;;;11.50;99.90;;;;;;5066179;28;20422;-80
2024/03/13 03:35:24;;;;;;;0.30;0.20;;;11.50;99.90;;;;;;5065870;28;20677;-77
2024/03/13 03:37:51;;;;;;;0.30;0.20;;;11.50;99.90;;;;;;5065509;28;20185;-79
2024/03/13 03:40:17;;;;;;;0.30;0.20;;;11.50;99.90;;;;;;5064263;28;20197;-77
2024/03/13 03:42:43;;;;;;;0.30;0.20;;;11.50;99.90;;;;;;5064169;28;20193;-78
2024/03/13 03:45:09;;;;;;;0.30;0.20;;;11.50;99.90;;;;;;5065574;28;20547;-76
2024/03/13 03:47:35;;;;;;;0.30;0.20;;;11.50;99.90;;;;;;5065495;28;20779;-78
2024/03/13 03:50:01;;;;;;;0.30;0.20;;;11.50;99.90;;;;;;5065595;28;20446;-79
2024/03/13 03:52:27;;;;;;;1.23;1.13;;;11.50;99.90;;;;;;5064964;28;20197;-78
2024/03/13 03:54:53;;;;;;;0.30;0.20;;;11.50;99.90;;;;;;5065737;28;20508;-76
2024/03/13 03:57:19;;;;;;;0.30;0.20;;;11.40;99.90;;;;;;5065216;28;20169;-78
2024/03/13 03:59:45;;;;;;;0.30;0.20;;;11.50;99.90;;;;;;5065488;28;20247;-76
2024/03/13 04:02:16;;;;;;;0.30;0.22;;;11.50;99.90;;;;;;5064783;28;20173;-77
2024/03/13 04:04:43;;;;;;;2.45;1.85;;;11.50;99.90;;;;;;5065539;28;20646;-78
2024/03/13 04:07:11;;;;;;;0.30;0.20;;;11.60;99.90;;;;;;5064815;28;20176;-79
2024/03/13 04:09:36;;;;;;;0.50;0.50;;;11.60;99.90;;;;;;5065128;28;20180;-77
2024/03/13 04:12:02;;;;;;;0.30;0.20;;;11.60;99.90;;;;;;5063776;28;20173;-78
2024/03/13 04:14:28;;;;;;;2.97;2.88;;;11.60;99.90;;;;;;5064453;28;20232;-76
2024/03/13 04:16:54;;;;;;;0.30;0.20;;;11.60;99.90;;;;;;5064019;28;20545;-78
2024/03/13 04:19:21;;;;;;;0.30;0.20;;;11.60;99.90;;;;;;5063606;28;20516;-79
2024/03/13 04:21:47;;;;;;;1.10;1.10;;;11.60;99.90;;;;;;5065298;28;20180;-79
2024/03/13 04:24:13;;;;;;;0.30;0.20;;;11.60;99.90;;;;;;5063851;28;20205;-76
2024/03/13 04:26:43;;;;;;;0.30;0.20;;;11.60;99.90;;;;;;5065249;28;20832;-79
2024/03/13 04:29:10;;;;;;;0.30;0.30;;;11.60;99.90;;;;;;5065128;28;20470;-79
2024/03/13 04:31:39;;;;;;;0.30;0.20;;;11.70;99.90;;;;;;5064763;28;20192;-79
2024/03/13 04:34:07;;;;;;;0.30;0.20;;;11.70;99.90;;;;;;5065026;28;20429;-76
2024/03/13 04:36:36;;;;;;;0.30;0.20;;;11.70;99.90;;;;;;5065107;28;20509;-77
2024/03/13 04:39:02;;;;;;;0.30;0.20;;;11.80;99.90;;;;;;5065127;28;20232;-79
2024/03/13 04:41:27;;;;;;;0.30;0.20;;;11.80;99.90;;;;;;5063297;28;20188;-79
2024/03/13 04:43:53;;;;;;;0.30;0.20;;;11.80;99.90;;;;;;5064897;28;20285;-80
2024/03/13 04:46:18;;;;;;;0.30;0.30;;;11.90;99.90;;;;;;5063252;28;20629;-79
2024/03/13 04:48:47;;;;;;;0.30;0.20;;;11.90;99.90;;;;;;5063613;28;20201;-79
2024/03/13 04:51:16;;;;;;;0.30;0.20;;;11.90;99.90;;;;;;5064785;28;20204;-76
2024/03/13 04:53:43;;;;;;;0.30;0.20;;;11.90;99.90;;;;;;5063756;28;20197;-79
2024/03/13 04:56:11;;;;;;;0.30;0.20;;;11.90;99.90;;;;;;5064685;28;20284;-80
2024/03/13 04:58:37;;;;;;;0.40;0.30;;;12.00;99.90;;;;;;5064788;28;20193;-79
2024/03/13 05:01:03;;;;;;;0.30;0.20;;;12.00;99.90;;;;;;5063361;28;20441;-78
2024/03/13 05:03:30;;;;;;;0.30;0.20;;;12.00;99.90;;;;;;5063231;28;20436;-79
2024/03/13 05:05:56;;;;;;;0.30;0.20;;;12.00;99.90;;;;;;5063824;28;20236;-77
2024/03/13 05:08:22;;;;;;;0.30;0.30;;;12.00;99.90;;;;;;5064244;28;20201;-76
2024/03/13 05:10:47;;;;;;;0.30;0.20;;;12.00;99.90;;;;;;5062768;28;20424;-78
2024/03/13 05:13:13;;;;;;;0.40;0.40;;;12.00;99.90;;;;;;5064502;28;20201;-79
2024/03/13 05:15:39;;;;;;;0.30;0.20;;;12.00;99.90;;;;;;5062099;28;20241;-77
2024/03/13 05:18:05;;;;;;;0.30;0.20;;;12.00;99.90;;;;;;5064062;28;20196;-79
2024/03/13 05:20:31;;;;;;;0.30;0.20;;;12.00;99.90;;;;;;5067622;28;20600;-79
2024/03/13 05:22:56;;;;;;;0.30;0.20;;;12.00;99.90;;;;;;5080561;28;20561;-77
2024/03/13 05:25:22;;;;;;;1.90;1.80;;;12.00;99.90;;;;;;5062572;28;20227;-79
2024/03/13 05:27:51;;;;;;;0.30;0.20;;;12.00;99.90;;;;;;5077062;28;20626;-80
2024/03/13 05:30:17;;;;;;;0.30;0.30;;;12.00;99.90;;;;;;5075471;28;20189;-80
2024/03/13 05:32:45;;;;;;;0.77;0.77;;;12.00;99.90;;;;;;5075945;28;20279;-80
2024/03/13 05:35:13;;;;;;;0.30;0.20;;;12.10;99.90;;;;;;5078036;28;20642;-80
2024/03/13 05:37:39;;;;;;;0.30;0.20;;;12.10;99.90;;;;;;5075329;28;20197;-79
2024/03/13 05:40:12;;;;;;;0.60;0.60;;;12.10;99.90;;;;;;5076846;28;20634;-79
2024/03/13 05:42:39;;;;;;;0.30;0.20;;;12.10;99.90;;;;;;5077533;28;20329;-80
2024/03/13 05:45:07;;;;;;;0.30;0.20;;;12.10;99.90;;;;;;5071422;28;20465;-77
2024/03/13 05:47:32;;;;;;;0.30;0.20;;;12.10;99.90;;;;;;5080778;28;20558;-80
2024/03/13 05:49:58;;;;;;;0.30;0.20;;;12.10;99.90;;;;;;5069933;28;20660;-80
2024/03/13 05:52:24;;;;;;;0.60;0.60;;;12.10;99.90;;;;;;5069540;28;20192;-78
2024/03/13 05:54:49;;;;;;;0.30;0.20;;;12.10;99.90;;;;;;5074487;28;20192;-77
2024/03/13 05:57:15;;;;;;;0.30;0.20;;;12.10;99.90;;;;;;5085274;28;20182;-80
2024/03/13 05:59:41;;;;;;;0.30;0.20;;;12.20;99.90;;;;;;5080588;28;20737;-79
2024/03/13 06:02:07;;;;;;;0.30;0.30;;;12.20;99.90;;;;;;5080969;28;20264;-82
2024/03/13 06:04:33;;;;;;;0.30;0.20;;;12.20;99.90;;;;;;5084473;28;20208;-79
2024/03/13 06:06:59;;;;;;;0.40;0.40;;;12.20;99.90;;;;;;5081626;28;21009;-82
2024/03/13 06:09:25;;;;;;;0.93;0.93;;;12.20;99.90;;;;;;5069652;28;20293;-80
2024/03/13 06:11:52;;;;;;;0.30;0.20;;;12.30;99.90;;;;;;5078785;28;20464;-80
2024/03/13 06:14:18;;;;;;;0.30;0.20;;;12.30;99.90;;;;;;5079068;28;20483;-80
2024/03/13 06:16:43;;;;;;;0.30;0.20;;;12.30;99.90;;;;;;5079971;28;20999;-76
2024/03/13 06:19:10;;;;;;;0.30;0.20;;;12.30;99.90;;;;;;5081280;28;20204;-77
2024/03/13 06:21:36;;;;;;;0.40;0.40;;;12.30;99.90;;;;;;5076607;28;20188;-80
2024/03/13 06:24:05;;;;;;;0.30;0.30;;;12.30;99.90;;;;;;5080202;28;20221;-80
2024/03/13 06:26:31;;;;;;;0.60;0.60;;;12.30;99.90;;;;;;5083843;28;20302;-77
2024/03/13 06:31:42;;;;;;;0.30;0.20;;;12.10;99.90;;;;;;5083222;28;20439;-78
2024/03/13 06:34:11;;;;;;;0.30;0.20;;;12.00;99.90;;;;;;5084077;28;20411;-77
2024/03/13 06:36:39;;;;;;;0.30;0.20;;;12.00;99.90;;;;;;5070921;28;20441;-81
2024/03/13 06:39:05;;;;;;;0.30;0.30;;;12.00;99.90;;;;;;5076804;28;20445;-76
2024/03/13 06:41:30;;;;;;;0.30;0.20;;;12.00;99.90;;;;;;5078969;28;20432;-76
2024/03/13 06:43:57;;;;;;;0.30;0.30;;;12.10;99.90;;;;;;5073630;28;20800;-78
2024/03/13 06:46:28;;;;;;;0.30;0.20;;;12.10;99.90;;;;;;5076844;28;20480;-81
2024/03/13 06:48:55;;;;;;;0.30;0.20;;;12.20;99.90;;;;;;5072600;28;20598;-78
2024/03/13 06:51:22;;;;;;;0.30;0.20;;;12.20;99.90;;;;;;5066257;28;20648;-76
2024/03/13 06:53:50;;;;;;;0.30;0.20;;;12.30;99.90;;;;;;5090210;28;20249;-76
2024/03/13 06:56:16;;;;;;;0.60;0.57;;;12.30;99.90;;;;;;5082082;28;20509;-76
2024/03/13 06:58:42;;;;;;;0.40;0.40;;;12.40;99.90;;;;;;5074984;28;20777;-79
2024/03/13 07:01:14;;;;;;;0.30;0.20;;;12.40;99.90;;;;;;5065108;28;20220;-79
2024/03/13 07:03:43;;;;;;;1.90;1.80;;;12.40;99.90;;;;;;5079746;28;20445;-76
2024/03/13 07:06:10;;;;;;;0.57;0.57;;;12.40;99.90;;;;;;5083201;28;20803;-76
2024/03/13 07:08:36;;;;;;;0.40;0.37;;;12.40;99.90;;;;;;5077772;28;20811;-76
2024/03/13 07:11:08;;;;;;;0.30;0.20;;;12.40;99.90;;;;;;5073069;28;20521;-78
2024/03/13 07:13:34;;;;;;;1.17;1.10;;;12.50;99.90;;;;;;5070641;28;20508;-76
2024/03/13 07:16:00;;;;;;;0.30;0.20;;;12.50;99.90;;;;;;5063791;28;20476;-79
2024/03/13 07:18:31;;;;;;;0.30;0.20;;;12.50;99.90;;;;;;5078151;28;20429;-79
2024/03/13 07:20:57;;;;;;;0.93;0.93;;;12.50;99.90;;;;;;5074778;28;20608;-77
2024/03/13 07:23:23;;;;;;;0.30;0.20;;;12.60;99.90;;;;;;5080408;28;20457;-79
2024/03/13 07:25:56;;;;;;;0.40;0.20;;;12.70;99.90;;;;;;5061141;28;20896;-79
2024/03/13 07:28:22;;;;;;;0.33;0.33;;;12.80;99.90;;;;;;5068460;28;20552;-81
2024/03/13 07:30:47;;;;;;;0.30;0.20;;;12.90;99.90;;;;;;5071724;28;20432;-79
2024/03/13 07:33:16;;;;;;;0.30;0.20;;;12.90;99.90;;;;;;5074200;28;20449;-76
2024/03/13 07:35:42;;;;;;;0.57;0.57;;;13.00;99.90;;;;;;5070576;28;20197;-77
2024/03/13 07:38:09;;;;;;;0.60;0.60;;;13.20;99.90;;;;;;5073156;28;20454;-78
2024/03/13 07:40:37;;;;;;;0.60;0.60;;;13.20;99.90;;;;;;5076819;28;20188;-76
2024/03/13 07:43:05;;;;;;;0.30;0.20;;;13.40;99.90;;;;;;5081105;28;20456;-76
2024/03/13 07:45:31;;;;;;;0.30;0.20;;;13.40;99.90;;;;;;5073926;28;20465;-76
2024/03/13 07:47:58;;;;;;;0.40;0.30;;;13.40;99.90;;;;;;5073627;28;20445;-79
2024/03/13 07:50:23;;;;;;;0.30;0.20;;;13.40;99.90;;;;;;5070567;28;20187;-76
2024/03/13 07:52:49;;;;;;;0.30;0.20;;;13.40;99.90;;;;;;5086153;28;20441;-76
2024/03/13 07:55:17;;;;;;;0.30;0.20;;;13.40;99.90;;;;;;5070030;28;20558;-79
2024/03/13 07:57:43;;;;;;;0.30;0.20;;;13.40;99.90;;;;;;5070003;28;20277;-76
2024/03/13 08:00:11;;;;;;;1.17;1.07;;;13.40;99.90;;;;;;5070536;28;20522;-78
2024/03/13 08:02:37;;;;;;;0.30;0.20;;;13.40;99.90;;;;;;5071781;28;20574;-79
2024/03/13 08:05:03;;;;;;;0.30;0.20;;;13.40;99.90;;;;;;5071942;28;20448;-79
2024/03/13 08:07:31;;;;;;;0.40;0.20;;;13.40;99.90;;;;;;5066548;28;20392;-79
2024/03/13 08:09:57;;;;;;;0.30;0.20;;;13.50;99.90;;;;;;5067208;28;20675;-77
2024/03/13 08:12:23;;;;;;;1.20;1.20;;;13.60;99.90;;;;;;5067761;28;20429;-77
2024/03/13 08:14:49;;;;;;;0.30;0.30;;;13.60;99.90;;;;;;5065350;28;20560;-77
2024/03/13 08:17:14;;;;;;;0.40;0.40;;;13.70;99.90;;;;;;5071260;28;20917;-79
2024/03/13 08:19:40;;;;;;;0.43;0.40;;;13.80;99.90;;;;;;5078433;28;20657;-77
2024/03/13 08:22:07;;;;;;;6.03;5.67;;;13.80;99.90;;;;;;5071392;28;20413;-80
2024/03/13 08:24:33;;;;;;;29.17;4.63;;;13.80;99.90;;;;;;5059265;28;20188;-77
2024/03/13 08:26:58;;;;;;;0.30;0.27;;;13.80;99.90;;;;;;5057317;28;21046;-80
2024/03/13 08:29:25;;;;;;;0.30;0.20;;;13.70;99.90;;;;;;5071952;28;20700;-81
2024/03/13 08:31:51;;;;;;;0.30;0.20;;;13.70;99.90;;;;;;5075128;28;20177;-81
2024/03/13 08:34:19;;;;;;;0.30;0.20;;;13.70;99.90;;;;;;5077714;28;20772;-78
2024/03/13 08:36:45;;;;;;;8.97;8.27;;;13.60;99.90;;;;;;5076750;28;20184;-77
2024/03/13 08:39:12;;;;;;;0.30;0.20;;;13.60;99.90;;;;;;5070664;28;20468;-80
2024/03/13 08:41:39;;;;;;;0.30;0.20;;;13.60;99.90;;;;;;5081860;28;20176;-78
2024/03/13 08:44:06;;;;;;;0.50;0.50;;;13.60;99.90;;;;;;5076624;28;20567;-78
2024/03/13 08:46:32;;;;;;;0.30;0.20;;;13.60;99.90;;;;;;5061005;28;20678;-78
2024/03/13 08:49:01;;;;;;;0.30;0.20;;;13.70;99.90;;;;;;5060540;28;20429;-81
2024/03/13 08:51:26;;;;;;;0.30;0.20;;;13.80;99.90;;;;;;5059627;28;20464;-77
2024/03/13 08:53:52;;;;;;;0.30;0.20;;;13.90;99.90;;;;;;5071583;28;20445;-78
2024/03/13 08:56:19;;;;;;;0.47;0.47;;;13.90;99.90;;;;;;5078305;28;20185;-81
2024/03/13 08:58:45;;;;;;;2.67;2.53;;;14.00;99.90;;;;;;5072755;28;20355;-78
2024/03/13 09:01:11;;;;;;;2.03;2.00;;;14.00;99.90;;;;;;5076882;28;20674;-76
2024/03/13 09:03:37;;;;;;;0.30;0.20;;;14.00;99.90;;;;;;5084975;28;20355;-78
2024/03/13 09:06:07;;;;;;;0.40;0.40;;;14.10;99.90;;;;;;5079241;28;21003;-81
2024/03/13 09:08:33;;;;;;;0.30;0.20;;;14.10;99.90;;;;;;5082143;28;20437;-79
2024/03/13 09:10:59;;;;;;;0.30;0.20;;;14.20;99.90;;;;;;5074671;28;20436;-81
2024/03/13 09:13:25;;;;;;;0.50;0.33;;;14.20;99.90;;;;;;5062006;28;20977;-81
2024/03/13 09:15:50;;;;;;;0.40;0.30;;;14.20;99.90;;;;;;5059830;28;20488;-81
2024/03/13 09:18:16;;;;;;;0.30;0.30;;;14.20;99.90;;;;;;5071286;28;20196;-81
2024/03/13 09:20:42;;;;;;;1.37;1.37;;;14.30;99.90;;;;;;5077853;28;20177;-78
2024/03/13 09:23:10;;;;;;;0.60;0.60;;;14.40;99.90;;;;;;5080586;28;20232;-81
2024/03/13 09:25:37;;;;;;;0.30;0.20;;;14.40;99.90;;;;;;5075631;28;20205;-77
2024/03/13 09:28:02;;;;;;;0.87;0.87;;;14.30;99.90;;;;;;5074573;28;20456;-79
2024/03/13 09:30:28;;;;;;;0.30;0.20;;;14.30;99.90;;;;;;5077193;28;20804;-77
2024/03/13 09:32:55;;;;;;;0.30;0.20;;;14.30;99.90;;;;;;5074456;28;20449;-77
2024/03/13 09:35:21;;;;;;;0.30;0.20;;;14.30;99.90;;;;;;5076679;28;20177;-78
2024/03/13 09:37:47;;;;;;;0.30;0.20;;;14.30;99.90;;;;;;5069508;28;20518;-77
2024/03/13 09:40:16;;;;;;;1.70;1.60;;;14.40;99.90;;;;;;5065560;28;20449;-78
2024/03/13 09:42:45;;;;;;;0.70;0.70;;;14.40;99.90;;;;;;5054066;28;20502;-78
2024/03/13 09:45:16;;;;;;;0.30;0.20;;;14.50;99.90;;;;;;5052715;28;20960;-77
2024/03/13 09:47:44;;;;;;;0.80;0.50;;;14.50;99.90;;;;;;5053794;28;20604;-79
2024/03/13 09:50:12;;;;;;;0.30;0.20;;;14.60;99.90;;;;;;5063957;28;20439;-77
2024/03/13 09:52:39;;;;;;;8.93;8.43;;;14.60;99.90;;;;;;5073626;28;20445;-79
2024/03/13 09:55:10;;;;;;;0.30;0.20;;;14.70;99.90;;;;;;5075557;28;20464;-76
2024/03/13 09:57:38;;;;;;;0.30;0.30;;;14.70;99.90;;;;;;5076601;28;20782;-79
2024/03/13 10:00:14;;;;;;;0.30;0.30;;;14.70;99.90;;;;;;5076612;28;20440;-77
2024/03/13 10:02:42;;;;;;;0.30;0.20;;;14.70;99.90;;;;;;5056948;28;20829;-79
2024/03/13 10:05:12;;;;;;;0.30;0.30;;;14.70;99.90;;;;;;5057111;28;20418;-80
2024/03/13 10:07:38;;;;;;;0.30;0.20;;;14.70;99.90;;;;;;5057991;28;20441;-76
2024/03/13 10:10:34;;;;;;;0.30;0.20;;;14.70;99.90;;;;;;5057479;28;20788;-79
2024/03/13 10:13:01;;;;;;;0.30;0.20;;;14.70;99.90;;;;;;5049413;28;20530;-77
2024/03/13 10:15:29;;;;;;;0.30;0.27;;;14.70;99.90;;;;;;5061225;28;20746;-77
2024/03/13 10:18:13;;;;;;;0.30;0.20;;;14.80;99.90;;;;;;5073123;28;20687;-79
2024/03/13 10:21:12;;;;;;;1.13;1.13;;;14.80;99.90;;;;;;5075960;28;20783;-79
2024/03/13 10:23:44;;;;;;;2.00;1.90;;;14.80;99.90;;;;;;5083637;28;20449;-77
2024/03/13 10:26:12;;;;;;;2.00;1.90;;;14.80;99.90;;;;;;5077657;28;20484;-77
2024/03/13 10:28:38;;;;;;;1.90;1.63;;;14.80;99.90;;;;;;5078798;28;20459;-78
2024/03/13 10:31:04;;;;;;;0.30;0.30;;;14.80;99.90;;;;;;5075426;28;20511;-79
2024/03/13 10:33:31;;;;;;;0.30;0.20;;;14.80;99.90;;;;;;5080510;28;20436;-76
2024/03/13 10:35:57;;;;;;;0.30;0.20;;;14.80;99.90;;;;;;5080021;28;20611;-79
2024/03/13 10:38:26;;;;;;;0.30;0.20;;;14.80;99.90;;;;;;5081473;28;20449;-77
2024/03/13 10:40:52;;;;;;;0.30;0.20;;;14.80;99.90;;;;;;5079463;28;20680;-77
2024/03/13 10:43:18;;;;;;;0.30;0.20;;;14.90;99.90;;;;;;5079318;28;20478;-77
2024/03/13 10:45:50;;;;;;;0.40;0.40;;;14.90;99.90;;;;;;5077111;28;20387;-77
2024/03/13 10:48:20;;;;;;;0.30;0.20;;;15.00;99.90;;;;;;5079881;28;20852;-79
2024/03/13 10:50:48;;;;;;;0.30;0.20;;;15.00;99.90;;;;;;5079093;28;20449;-77
2024/03/13 10:53:14;;;;;;;0.30;0.20;;;15.00;99.90;;;;;;5076608;28;21159;-77
2024/03/13 10:55:41;;;;;;;0.30;0.20;;;15.10;99.90;;;;;;5073129;28;20430;-76
2024/03/13 10:58:21;;;;;;;0.30;0.27;;;15.10;99.90;;;;;;5073797;28;20469;-77
2024/03/13 11:00:48;;;;;;;0.30;0.20;;;15.00;99.90;;;;;;5082332;28;20664;-77
2024/03/13 11:03:13;;;;;;;7.90;7.50;;;15.00;99.90;;;;;;5081469;28;20874;-77
2024/03/13 11:05:40;;;;;;;0.30;0.20;;;15.00;99.90;;;;;;5082129;28;20451;-77
2024/03/13 11:08:09;;;;;;;0.40;0.40;;;15.00;99.90;;;;;;5076741;28;20233;-77
2024/03/13 11:10:35;;;;;;;0.30;0.20;;;15.00;99.90;;;;;;5081203;28;20475;-79
2024/03/13 11:13:05;;;;;;;0.30;0.20;;;15.00;99.90;;;;;;5081440;28;20480;-79
2024/03/13 11:15:34;;;;;;;0.30;0.20;;;15.00;99.90;;;;;;5078600;28;20228;-79
2024/03/13 11:18:04;;;;;;;0.30;0.30;;;15.00;99.90;;;;;;5077956;28;20475;-77
2024/03/13 11:21:00;;;;;;;0.30;0.20;;;15.10;99.90;;;;;;5068917;28;20453;-79
2024/03/13 11:23:33;;;;;;;0.57;0.57;;;15.10;99.90;;;;;;5071602;28;20444;-77
2024/03/13 11:26:03;;;;;;;0.30;0.30;;;15.10;99.90;;;;;;5077469;28;20495;-77
2024/03/13 11:28:30;;;;;;;0.30;0.30;;;15.20;99.90;;;;;;5075189;28;20695;-79
2024/03/13 11:31:00;;;;;;;0.30;0.20;;;15.20;99.90;;;;;;5073517;28;20809;-79
2024/03/13 11:33:26;;;;;;;0.30;0.20;;;15.20;99.90;;;;;;5080762;28;20502;-79
2024/03/13 11:35:54;;;;;;;0.30;0.20;;;15.30;99.90;;;;;;5081735;28;20452;-81
2024/03/13 11:38:21;;;;;;;0.30;0.20;;;15.30;99.90;;;;;;5083679;28;20785;-77
2024/03/13 11:40:48;;;;;;;0.50;0.50;;;15.30;99.90;;;;;;5080272;28;20883;-80
2024/03/13 11:43:25;;;;;;;0.30;0.20;;;15.30;99.90;;;;;;5080445;28;20448;-78
2024/03/13 11:45:50;;;;;;;0.30;0.20;;;15.30;99.90;;;;;;5076635;28;20880;-79
2024/03/13 11:48:22;;;;;;;1.67;1.63;;;15.30;99.90;;;;;;5073784;28;20532;-79
2024/03/13 11:51:00;;;;;;;1.50;1.40;;;15.30;99.90;;;;;;5069522;28;20395;-78
2024/03/13 11:53:29;;;;;;;0.40;0.20;;;15.30;99.90;;;;;;5074472;28;20927;-80
2024/03/13 11:55:55;;;;;;;0.30;0.20;;;15.40;99.90;;;;;;5068499;28;20449;-80
2024/03/13 11:58:21;;;;;;;0.30;0.30;;;15.40;99.90;;;;;;5075887;28;20870;-80
2024/03/13 12:00:48;;;;;;;0.30;0.20;;;15.40;99.90;;;;;;5073923;28;20456;-80
2024/03/13 12:03:19;;;;;;;0.30;0.20;;;15.40;99.90;;;;;;5073960;28;20467;-77
2024/03/13 12:05:45;;;;;;;0.30;0.20;;;15.40;99.90;;;;;;5062416;28;20567;-80
2024/03/13 12:08:16;;;;;;;1.40;1.30;;;15.50;99.90;;;;;;5065061;28;21208;-80
2024/03/13 12:10:41;;;;;;;1.13;0.87;;;15.50;99.90;;;;;;5069889;28;20965;-80
2024/03/13 12:13:14;;;;;;;0.30;0.20;;;15.40;99.90;;;;;;5067091;28;20769;-77
2024/03/13 12:15:42;;;;;;;0.30;0.20;;;15.50;99.90;;;;;;5068019;28;20438;-77
2024/03/13 12:18:11;;;;;;;0.40;0.40;;;15.40;99.90;;;;;;5069045;28;20457;-79
2024/03/13 12:20:40;;;;;;;8.23;7.90;;;15.40;99.90;;;;;;5067384;28;20467;-79
2024/03/13 12:23:09;;;;;;;0.30;0.20;;;15.40;99.90;;;;;;5070486;28;20745;-77
2024/03/13 12:25:35;;;;;;;0.37;0.37;;;15.40;99.90;;;;;;5073357;28;20507;-78
2024/03/13 12:28:01;;;;;;;1.87;1.70;;;15.40;99.90;;;;;;5068873;28;20867;-77
2024/03/13 12:30:37;;;;;;;0.80;0.30;;;15.40;99.90;;;;;;5070678;28;20781;-77
2024/03/13 12:33:05;;;;;;;1.13;1.13;;;15.40;99.90;;;;;;5069310;28;20481;-80
2024/03/13 12:35:33;;;;;;;0.30;0.30;;;15.40;99.90;;;;;;5070086;28;20959;-80
2024/03/13 12:37:59;;;;;;;0.30;0.20;;;15.40;99.90;;;;;;5078743;28;21050;-80
2024/03/13 12:40:25;;;;;;;2.97;1.70;;;15.40;99.90;;;;;;5071961;28;20429;-81
2024/03/13 12:42:51;;;;;;;0.30;0.30;;;15.40;99.90;;;;;;5076268;28;20464;-80
2024/03/13 12:45:17;;;;;;;0.43;0.43;;;15.30;99.90;;;;;;5076933;28;20439;-80
2024/03/13 12:47:44;;;;;;;0.63;0.63;;;15.30;99.90;;;;;;5075372;28;20511;-80
2024/03/13 12:50:15;;;;;;;0.30;0.20;;;15.30;99.90;;;;;;5076620;28;20543;-80
2024/03/13 12:52:42;;;;;;;0.30;0.20;;;15.30;99.90;;;;;;5068808;28;21054;-80
2024/03/13 12:55:12;;;;;;;0.30;0.20;;;15.20;99.90;;;;;;5072751;28;20445;-81
2024/03/13 12:57:38;;;;;;;1.33;1.23;;;15.20;99.90;;;;;;5074270;28;21054;-78
2024/03/13 13:00:14;;;;;;;0.73;0.73;;;15.20;99.90;;;;;;5080546;28;20433;-80
2024/03/13 13:02:44;;;;;;;0.43;0.43;;;15.10;99.90;;;;;;5075664;28;20444;-78
2024/03/13 13:05:11;;;;;;;0.53;0.50;;;15.10;99.90;;;;;;5079015;28;20843;-80
2024/03/13 13:07:47;;;;;;;0.30;0.20;;;15.10;99.90;;;;;;5082690;28;20535;-80